Bermuda Dunes, California
Current Conditions -  °F | °C
As of 7:52 AM on Friday 21 Nov 2014 (Local Time) from KTRM Reporting Station
Clear Clear  
Wind Chill: 61°   Ceiling: Unl
Heat Index: 61°   Visibility: 10mi
Dew Point: 47°   Wind: 6mph
Humidity: 60%   Direction: 330°NNW
Pressure: 29.92"   Gusts: NA
Location:  33.7719°N, 116.279°W
Report Text: KTRM 211552Z AUTO 33005KT 10SM CLR 16/08 A2992 RMK AO2 RAE1457 SLP132 P0000 T01610083 TSNO
Loading
Personal Weather Stations






























Interactive Weather Map New forecast layout! Learn more

10-Day Weather Forecast

Advertisements
Track Severe Weather on mobile